createdAt,value
2018-09-23T00:01:23.982Z,0.80
2018-09-23T00:03:52.557Z,0.77
2018-09-23T00:06:21.126Z,0.83
2018-09-23T00:08:49.708Z,0.50
2018-09-23T00:11:18.238Z,1.00
2018-09-23T00:13:46.791Z,0.60
2018-09-23T00:16:15.310Z,0.70
2018-09-23T00:18:43.896Z,1.00
2018-09-23T00:21:12.454Z,1.10
2018-09-23T00:23:41.117Z,0.60
2018-09-23T00:26:09.668Z,0.60
2018-09-23T00:28:38.858Z,1.37
2018-09-23T00:31:07.474Z,1.00
2018-09-23T00:33:36.097Z,1.10
2018-09-23T00:36:04.689Z,0.63
2018-09-23T00:38:33.850Z,0.60
2018-09-23T00:41:02.438Z,0.60
2018-09-23T00:43:31.038Z,0.60
2018-09-23T00:45:59.684Z,0.60
2018-09-23T00:48:28.248Z,0.77
2018-09-23T00:50:56.766Z,0.60
2018-09-23T00:53:25.357Z,0.60
2018-09-23T00:55:53.858Z,0.70
2018-09-23T00:58:22.364Z,0.80
2018-09-23T01:00:51.165Z,0.80
2018-09-23T01:03:19.661Z,0.70
2018-09-23T01:05:48.285Z,0.77
2018-09-23T01:08:16.788Z,0.80
2018-09-23T01:10:45.317Z,0.60
2018-09-23T01:13:13.801Z,0.67
2018-09-23T01:15:44.869Z,0.87
2018-09-23T01:18:13.368Z,0.87
2018-09-23T01:20:41.975Z,1.00
2018-09-23T01:23:10.498Z,0.83
2018-09-23T01:25:39.044Z,0.77
2018-09-23T01:28:07.583Z,0.60
2018-09-23T01:30:36.136Z,0.70
2018-09-23T01:33:04.656Z,0.70
2018-09-23T01:36:34.265Z,0.60
2018-09-23T01:39:02.841Z,0.67
2018-09-23T01:41:31.429Z,0.77
2018-09-23T01:43:59.936Z,0.60
2018-09-23T01:46:28.479Z,0.63
2018-09-23T01:48:57.005Z,0.80
2018-09-23T01:51:25.532Z,0.90
2018-09-23T01:53:54.059Z,0.50
2018-09-23T01:56:22.622Z,0.63
2018-09-23T01:58:51.144Z,0.60
2018-09-23T02:01:19.766Z,0.60
2018-09-23T02:03:48.307Z,0.77
2018-09-23T02:06:16.868Z,0.60
2018-09-23T02:08:45.371Z,0.70
2018-09-23T02:11:13.924Z,0.50
2018-09-23T02:13:42.432Z,0.77
2018-09-23T02:16:10.935Z,0.70
2018-09-23T02:18:39.474Z,0.77
2018-09-23T02:21:08.017Z,0.53
2018-09-23T02:23:36.649Z,0.73
2018-09-23T02:26:05.194Z,0.50
2018-09-23T02:28:33.758Z,0.80
2018-09-23T02:31:02.297Z,0.60
2018-09-23T02:33:30.835Z,0.50
2018-09-23T02:35:59.345Z,0.77
2018-09-23T02:38:27.877Z,1.17
2018-09-23T02:40:56.439Z,0.87
2018-09-23T02:43:24.969Z,0.90
2018-09-23T02:45:53.472Z,0.70
2018-09-23T02:48:21.995Z,0.67
2018-09-23T02:50:50.493Z,1.23
2018-09-23T02:53:19.027Z,0.67
2018-09-23T02:55:47.520Z,0.80
2018-09-23T02:58:16.079Z,0.80
2018-09-23T03:00:44.607Z,0.70
2018-09-23T03:03:13.152Z,0.63
2018-09-23T03:05:41.707Z,0.70
2018-09-23T03:08:10.279Z,0.60
2018-09-23T03:10:38.799Z,0.50
2018-09-23T03:13:07.303Z,1.07
2018-09-23T03:15:35.888Z,1.17
2018-09-23T03:18:04.403Z,0.50
2018-09-23T03:20:32.959Z,0.87
2018-09-23T03:23:01.451Z,0.60
2018-09-23T03:25:29.982Z,0.70
2018-09-23T03:27:58.489Z,0.97
2018-09-23T03:30:27.002Z,0.60
2018-09-23T03:32:55.505Z,0.77
2018-09-23T03:35:24.040Z,1.70
2018-09-23T03:37:52.570Z,0.90
2018-09-23T03:40:21.175Z,1.27
2018-09-23T03:42:49.778Z,0.77
2018-09-23T03:45:18.341Z,0.63
2018-09-23T03:47:46.861Z,0.50
2018-09-23T03:50:15.394Z,1.00
2018-09-23T03:52:43.912Z,0.80
2018-09-23T03:55:12.505Z,0.83
2018-09-23T03:57:41.021Z,0.90
2018-09-23T04:00:09.638Z,1.17
2018-09-23T04:02:38.158Z,0.67
2018-09-23T04:05:06.752Z,0.90
2018-09-23T04:07:35.270Z,0.87
2018-09-23T04:10:03.850Z,1.10
2018-09-23T04:12:32.374Z,0.80
2018-09-23T04:15:00.852Z,0.60
2018-09-23T04:17:29.404Z,0.73
2018-09-23T04:19:57.920Z,0.70
2018-09-23T04:22:26.486Z,0.50
2018-09-23T04:24:55.008Z,0.80
2018-09-23T04:27:23.608Z,0.47
2018-09-23T04:29:52.182Z,0.70
2018-09-23T04:32:20.777Z,0.67
2018-09-23T04:34:49.279Z,0.50
2018-09-23T04:37:17.835Z,0.70
2018-09-23T04:39:46.338Z,0.47
2018-09-23T04:42:14.934Z,0.40
2018-09-23T04:44:43.447Z,0.40
2018-09-23T04:47:11.991Z,0.30
2018-09-23T04:49:40.536Z,0.53
2018-09-23T04:52:09.087Z,0.53
2018-09-23T04:54:37.591Z,0.97
2018-09-23T04:57:06.147Z,0.40
2018-09-23T04:59:34.675Z,0.63
2018-09-23T05:02:03.287Z,0.23
2018-09-23T05:04:31.807Z,0.50
2018-09-23T05:07:00.360Z,0.50
2018-09-23T05:09:28.910Z,0.53
2018-09-23T05:11:57.435Z,0.73
2018-09-23T05:14:25.972Z,0.40
2018-09-23T05:16:54.524Z,0.40
2018-09-23T05:19:23.124Z,0.47
2018-09-23T05:21:51.675Z,1.00
2018-09-23T05:24:20.323Z,0.50
2018-09-23T05:26:48.948Z,0.70
2018-09-23T05:29:17.487Z,0.40
2018-09-23T05:31:46.064Z,0.90
2018-09-23T05:34:14.643Z,0.70
2018-09-23T05:36:43.184Z,0.90
2018-09-23T05:39:12.089Z,0.50
2018-09-23T05:41:40.671Z,0.90
2018-09-23T05:44:09.919Z,0.50
2018-09-23T05:46:38.607Z,0.70
2018-09-23T05:49:07.528Z,0.47
2018-09-23T05:51:36.142Z,0.60
2018-09-23T05:54:05.404Z,0.70
2018-09-23T05:56:34.003Z,0.57
2018-09-23T05:59:02.539Z,0.90
2018-09-23T06:01:31.128Z,0.43
2018-09-23T06:03:59.679Z,0.73
2018-09-23T06:06:28.277Z,0.83
2018-09-23T06:08:56.973Z,0.80
2018-09-23T06:11:25.613Z,0.73
2018-09-23T06:13:54.217Z,0.80
2018-09-23T06:16:22.847Z,0.87
2018-09-23T06:18:51.463Z,0.67
2018-09-23T06:21:20.091Z,1.13
2018-09-23T06:23:48.638Z,0.73
2018-09-23T06:26:17.275Z,1.00
2018-09-23T06:28:45.877Z,1.17
2018-09-23T06:31:14.511Z,0.70
2018-09-23T06:33:43.063Z,0.63
2018-09-23T06:36:11.623Z,0.80
2018-09-23T06:38:40.191Z,1.30
2018-09-23T06:41:10.199Z,1.17
2018-09-23T06:43:38.701Z,1.40
2018-09-23T06:46:07.407Z,0.80
2018-09-23T06:48:35.964Z,0.70
2018-09-23T06:51:04.665Z,0.77
2018-09-23T06:53:33.218Z,1.10
2018-09-23T06:56:01.817Z,1.10
2018-09-23T06:58:30.422Z,0.70
2018-09-23T07:00:59.051Z,1.00
2018-09-23T07:03:27.693Z,0.90
2018-09-23T07:05:56.298Z,0.77
2018-09-23T07:08:25.034Z,0.90
2018-09-23T07:10:53.695Z,0.70
2018-09-23T07:13:22.320Z,1.00
2018-09-23T07:15:50.821Z,0.90
2018-09-23T07:18:19.388Z,0.50
2018-09-23T07:20:47.919Z,1.10
2018-09-23T07:23:16.505Z,0.70
2018-09-23T07:25:45.011Z,0.40
2018-09-23T07:28:13.648Z,0.70
2018-09-23T07:30:42.276Z,0.97
2018-09-23T07:33:10.848Z,1.13
2018-09-23T07:35:39.428Z,0.90
2018-09-23T07:38:07.978Z,0.77
2018-09-23T07:40:36.491Z,0.80
2018-09-23T07:43:05.121Z,1.27
2018-09-23T07:45:33.647Z,1.00
2018-09-23T07:48:03.148Z,1.03
2018-09-23T07:50:31.655Z,0.70
2018-09-23T07:53:00.222Z,0.67
2018-09-23T07:55:28.832Z,1.07
2018-09-23T07:57:57.366Z,0.80
2018-09-23T08:00:25.930Z,1.20
2018-09-23T08:02:54.463Z,0.80
2018-09-23T08:05:23.055Z,1.03
2018-09-23T08:07:51.575Z,0.70
2018-09-23T08:10:20.134Z,0.77
2018-09-23T08:12:48.856Z,0.90
2018-09-23T08:15:17.431Z,0.80
2018-09-23T08:17:46.000Z,0.73
2018-09-23T08:20:14.646Z,1.17
2018-09-23T08:22:43.095Z,0.50
2018-09-23T08:25:11.696Z,0.70
2018-09-23T08:27:40.180Z,0.67
2018-09-23T08:32:42.715Z,0.60
2018-09-23T08:35:11.361Z,0.60
2018-09-23T08:37:39.951Z,0.90
2018-09-23T08:40:08.535Z,0.57
2018-09-23T08:42:37.111Z,0.47
2018-09-23T08:45:05.775Z,0.70
2018-09-23T08:47:34.293Z,0.50
2018-09-23T08:52:36.919Z,0.47
2018-09-23T08:55:05.524Z,0.70
2018-09-23T08:57:34.064Z,0.50
2018-09-23T09:00:02.629Z,1.00
2018-09-23T09:02:31.191Z,0.73
2018-09-23T09:04:59.749Z,0.87
2018-09-23T09:07:28.316Z,0.50
2018-09-23T09:09:56.844Z,0.50
2018-09-23T09:12:25.419Z,0.60
2018-09-23T09:14:53.935Z,0.47
2018-09-23T09:17:22.552Z,0.77
2018-09-23T09:19:51.078Z,0.60
2018-09-23T09:22:19.676Z,0.40
2018-09-23T09:24:48.223Z,0.90
2018-09-23T09:27:16.809Z,0.50
2018-09-23T09:29:45.371Z,0.50
2018-09-23T09:32:13.936Z,0.30
2018-09-23T09:34:42.464Z,0.47
2018-09-23T09:37:11.019Z,0.60
2018-09-23T09:39:39.567Z,0.87
2018-09-23T09:42:08.151Z,0.63
2018-09-23T09:44:36.737Z,0.57
2018-09-23T09:47:05.354Z,0.67
2018-09-23T09:49:33.924Z,0.57
2018-09-23T09:52:03.552Z,0.77
2018-09-23T09:54:32.111Z,1.00
2018-09-23T09:57:00.631Z,0.60
2018-09-23T09:59:29.253Z,0.87
2018-09-23T10:01:57.831Z,1.17
2018-09-23T10:04:26.399Z,0.67
2018-09-23T10:06:54.915Z,0.63
2018-09-23T10:09:23.444Z,0.50
2018-09-23T10:11:51.944Z,0.57
2018-09-23T10:14:20.470Z,0.43
2018-09-23T10:16:48.999Z,1.00
2018-09-23T10:19:17.543Z,0.90
2018-09-23T10:21:46.367Z,0.50
2018-09-23T10:24:15.178Z,0.80
2018-09-23T10:26:43.695Z,0.87
2018-09-23T10:29:12.280Z,0.80
2018-09-23T10:31:40.812Z,0.43
2018-09-23T10:34:09.393Z,0.37
2018-09-23T10:36:37.919Z,0.60
2018-09-23T10:39:08.771Z,0.60
2018-09-23T10:41:37.359Z,0.80
2018-09-23T10:44:06.322Z,0.67
2018-09-23T10:46:35.427Z,0.40
2018-09-23T10:49:04.171Z,0.63
2018-09-23T10:51:32.679Z,0.57
2018-09-23T10:54:06.040Z,0.73
2018-09-23T10:56:34.574Z,0.60
2018-09-23T10:59:04.231Z,0.87
2018-09-23T11:01:32.735Z,1.00
2018-09-23T11:04:01.291Z,0.80
2018-09-23T11:06:29.827Z,0.80
2018-09-23T11:08:58.363Z,1.10
2018-09-23T11:11:26.975Z,0.70
2018-09-23T11:13:55.538Z,1.10
2018-09-23T11:16:24.093Z,0.60
2018-09-23T11:18:52.680Z,0.67
2018-09-23T11:21:21.202Z,0.70
2018-09-23T11:23:49.696Z,0.60
2018-09-23T11:26:18.230Z,0.60
2018-09-23T11:28:46.746Z,0.90
2018-09-23T11:31:15.279Z,1.17
2018-09-23T11:33:43.767Z,0.80
2018-09-23T11:36:12.343Z,0.80
2018-09-23T11:38:40.842Z,0.80
2018-09-23T11:41:09.431Z,0.93
2018-09-23T11:43:37.948Z,0.93
2018-09-23T11:46:06.654Z,0.93
2018-09-23T11:48:35.156Z,1.20
2018-09-23T11:51:03.680Z,1.10
2018-09-23T11:53:32.282Z,0.73
2018-09-23T11:56:00.795Z,0.67
2018-09-23T11:58:29.390Z,0.80
2018-09-23T12:00:57.977Z,0.80
2018-09-23T12:03:26.532Z,0.83
2018-09-23T12:05:55.067Z,0.60
2018-09-23T12:08:23.708Z,0.87
2018-09-23T12:10:52.240Z,0.67
2018-09-23T12:13:20.779Z,0.77
2018-09-23T12:15:49.410Z,0.93
2018-09-23T12:18:17.967Z,0.97
2018-09-23T12:20:46.561Z,0.60
2018-09-23T12:23:15.108Z,1.00
2018-09-23T12:25:43.794Z,0.97
2018-09-23T12:28:12.268Z,0.83
2018-09-23T12:30:40.802Z,0.90
2018-09-23T12:33:09.420Z,1.03
2018-09-23T12:35:37.910Z,0.60
2018-09-23T12:38:06.524Z,0.67
2018-09-23T12:40:35.019Z,1.10
2018-09-23T12:43:06.091Z,0.70
2018-09-23T12:45:34.595Z,0.97
2018-09-23T12:48:03.591Z,1.70
2018-09-23T12:50:32.097Z,0.97
2018-09-23T12:53:00.603Z,1.27
2018-09-23T12:55:29.135Z,0.73
2018-09-23T12:57:57.660Z,0.93
2018-09-23T13:00:26.221Z,0.83
2018-09-23T13:02:54.788Z,0.90
2018-09-23T13:05:24.383Z,0.90
2018-09-23T13:07:52.920Z,1.30
2018-09-23T13:10:21.482Z,1.10
2018-09-23T13:12:50.004Z,0.53
2018-09-23T13:15:18.612Z,1.23
2018-09-23T13:17:47.179Z,0.80
2018-09-23T13:20:15.719Z,0.70
2018-09-23T13:22:44.260Z,1.10
2018-09-23T13:25:12.895Z,1.07
2018-09-23T13:27:41.379Z,0.70
2018-09-23T13:30:10.033Z,1.20
2018-09-23T13:32:38.572Z,1.10
2018-09-23T13:35:07.199Z,0.93
2018-09-23T13:37:35.747Z,1.50
2018-09-23T13:40:04.467Z,1.13
2018-09-23T13:42:33.020Z,1.00
2018-09-23T13:45:01.529Z,1.00
2018-09-23T13:47:30.107Z,1.03
2018-09-23T13:49:58.602Z,0.97
2018-09-23T13:52:27.182Z,1.13
2018-09-23T13:54:55.696Z,0.80
2018-09-23T13:57:24.262Z,0.80
2018-09-23T13:59:52.785Z,1.27
2018-09-23T14:02:21.334Z,6.10
2018-09-23T14:04:49.927Z,1.67
2018-09-23T14:07:18.461Z,1.83
2018-09-23T14:09:47.064Z,1.50
2018-09-23T14:12:15.624Z,1.17
2018-09-23T14:14:44.129Z,0.90
2018-09-23T14:17:12.700Z,1.40
2018-09-23T14:19:41.314Z,1.57
2018-09-23T14:22:09.936Z,1.30
2018-09-23T14:24:38.472Z,1.20
2018-09-23T14:27:07.121Z,1.20
2018-09-23T14:29:35.669Z,0.90
2018-09-23T14:32:04.249Z,0.60
2018-09-23T14:34:32.787Z,0.90
2018-09-23T14:37:06.658Z,1.30
2018-09-23T14:39:35.242Z,1.10
2018-09-23T14:42:05.219Z,0.50
2018-09-23T14:44:33.770Z,0.70
2018-09-23T14:47:02.307Z,0.97
2018-09-23T14:49:30.880Z,1.00
2018-09-23T14:51:59.384Z,0.90
2018-09-23T14:54:28.154Z,0.87
2018-09-23T14:56:56.606Z,1.03
2018-09-23T14:59:25.449Z,1.00
2018-09-23T15:01:54.037Z,0.83
2018-09-23T15:04:22.589Z,1.03
2018-09-23T15:06:51.123Z,1.07
2018-09-23T15:09:19.652Z,0.90
2018-09-23T15:11:48.199Z,0.77
2018-09-23T15:14:16.784Z,0.97
2018-09-23T15:16:45.304Z,1.07
2018-09-23T15:19:13.870Z,0.90
2018-09-23T15:21:42.464Z,1.10
2018-09-23T15:24:10.968Z,1.50
2018-09-23T15:26:39.538Z,1.60
2018-09-23T15:29:08.306Z,1.30
2018-09-23T15:31:36.836Z,0.90
2018-09-23T15:34:05.384Z,1.00
2018-09-23T15:36:33.920Z,0.77
2018-09-23T15:39:02.998Z,0.90
2018-09-23T15:41:31.560Z,1.27
2018-09-23T15:44:00.060Z,1.20
2018-09-23T15:46:28.621Z,0.80
2018-09-23T15:48:57.149Z,1.00
2018-09-23T15:51:25.708Z,1.10
2018-09-23T15:53:54.264Z,0.70
2018-09-23T15:56:22.849Z,1.37
2018-09-23T15:58:51.368Z,1.20
2018-09-23T16:01:19.941Z,1.00
2018-09-23T16:03:48.459Z,0.90
2018-09-23T16:06:17.088Z,0.87
2018-09-23T16:08:45.632Z,1.00
2018-09-23T16:11:14.184Z,1.10
2018-09-23T16:13:42.729Z,0.93
2018-09-23T16:16:11.350Z,1.60
2018-09-23T16:18:40.069Z,1.23
2018-09-23T16:21:08.673Z,1.50
2018-09-23T16:23:37.615Z,1.03
2018-09-23T16:26:06.216Z,0.73
2018-09-23T16:28:34.727Z,1.00
2018-09-23T16:31:03.399Z,1.20
2018-09-23T16:33:31.951Z,0.80
2018-09-23T16:36:00.461Z,0.93
2018-09-23T16:38:29.039Z,1.10
2018-09-23T16:40:57.552Z,1.10
2018-09-23T16:43:26.219Z,1.00
2018-09-23T16:45:54.715Z,1.10
2018-09-23T16:48:23.311Z,1.10
2018-09-23T16:50:51.833Z,0.93
2018-09-23T16:53:20.399Z,0.70
2018-09-23T16:55:48.927Z,0.90
2018-09-23T16:58:17.442Z,0.97
2018-09-23T17:00:46.078Z,0.90
2018-09-23T17:03:14.592Z,1.20
2018-09-23T17:05:43.099Z,1.13
2018-09-23T17:08:11.718Z,1.43
2018-09-23T17:10:40.267Z,1.90
2018-09-23T17:13:08.842Z,2.30
2018-09-23T17:15:37.361Z,1.10
2018-09-23T17:18:06.125Z,1.50
2018-09-23T17:20:34.677Z,1.37
2018-09-23T17:23:03.200Z,1.00
2018-09-23T17:25:31.768Z,0.93
2018-09-23T17:28:00.375Z,1.17
2018-09-23T17:30:28.902Z,0.87
2018-09-23T17:32:57.414Z,0.93
2018-09-23T17:35:25.965Z,1.10
2018-09-23T17:37:54.494Z,1.30
2018-09-23T17:40:23.794Z,0.83
2018-09-23T17:42:52.328Z,1.03
2018-09-23T17:45:20.913Z,0.83
2018-09-23T17:47:49.446Z,0.80
2018-09-23T17:50:18.045Z,0.80
2018-09-23T17:52:46.591Z,0.70
2018-09-23T17:55:15.175Z,0.90
2018-09-23T17:57:43.758Z,1.40
2018-09-23T18:00:12.639Z,1.53
2018-09-23T18:02:41.195Z,1.20
2018-09-23T18:05:09.772Z,0.93
2018-09-23T18:07:38.311Z,1.17
2018-09-23T18:10:06.976Z,1.10
2018-09-23T18:12:35.552Z,0.80
2018-09-23T18:15:04.273Z,0.90
2018-09-23T18:17:32.855Z,1.57
2018-09-23T18:20:01.451Z,0.93
2018-09-23T18:22:30.100Z,1.23
2018-09-23T18:24:58.631Z,1.40
2018-09-23T18:27:27.175Z,0.73
2018-09-23T18:29:55.747Z,1.13
2018-09-23T18:32:24.329Z,1.20
2018-09-23T18:34:52.880Z,0.90
2018-09-23T18:37:21.624Z,1.53
2018-09-23T18:39:50.098Z,1.40
2018-09-23T18:42:18.736Z,1.33
2018-09-23T18:44:47.305Z,0.97
2018-09-23T18:47:15.883Z,1.03
2018-09-23T18:49:44.495Z,1.67
2018-09-23T18:52:13.047Z,1.50
2018-09-23T18:54:46.880Z,2.07
2018-09-23T18:57:15.427Z,2.07
2018-09-23T18:59:43.974Z,1.60
2018-09-23T19:02:12.570Z,1.40
2018-09-23T19:04:41.100Z,1.00
2018-09-23T19:07:09.728Z,1.60
2018-09-23T19:09:38.308Z,1.60
2018-09-23T19:12:06.950Z,1.50
2018-09-23T19:14:35.483Z,1.53
2018-09-23T19:17:04.040Z,1.70
2018-09-23T19:19:37.828Z,2.20
2018-09-23T19:22:10.604Z,1.77
2018-09-23T19:24:39.186Z,1.30
2018-09-23T19:27:07.719Z,1.63
2018-09-23T19:29:36.248Z,1.60
2018-09-23T19:32:05.328Z,1.70
2018-09-23T19:34:33.899Z,2.07
2018-09-23T19:37:02.413Z,1.77
2018-09-23T19:39:30.991Z,1.30
2018-09-23T19:41:59.558Z,1.77
2018-09-23T19:44:28.188Z,1.57
2018-09-23T19:46:56.719Z,1.27
2018-09-23T19:49:25.371Z,1.13
2018-09-23T19:51:53.794Z,1.37
2018-09-23T19:54:22.368Z,1.53
2018-09-23T19:56:50.891Z,1.40
2018-09-23T19:59:19.492Z,1.33
2018-09-23T20:01:48.061Z,1.43
2018-09-23T20:04:16.566Z,1.80
2018-09-23T20:06:45.248Z,1.20
2018-09-23T20:09:13.779Z,1.40
2018-09-23T20:11:42.348Z,1.03
2018-09-23T20:14:10.969Z,1.10
2018-09-23T20:16:39.560Z,1.03
2018-09-23T20:19:08.948Z,0.93
2018-09-23T20:21:37.724Z,1.73
2018-09-23T20:24:06.235Z,1.50
2018-09-23T20:26:34.814Z,1.33
2018-09-23T20:29:03.402Z,1.20
2018-09-23T20:31:31.969Z,1.40
2018-09-23T20:34:00.532Z,2.30
2018-09-23T20:36:29.099Z,1.77
2018-09-23T20:38:57.712Z,1.17
2018-09-23T20:41:26.307Z,1.43
2018-09-23T20:43:54.923Z,1.37
2018-09-23T20:46:23.500Z,1.50
2018-09-23T20:48:52.014Z,0.87
2018-09-23T20:51:20.518Z,1.70
2018-09-23T20:53:49.047Z,1.80
2018-09-23T20:56:17.566Z,1.20
2018-09-23T20:58:46.142Z,1.50
2018-09-23T21:01:14.686Z,2.00
2018-09-23T21:03:43.214Z,2.13
2018-09-23T21:06:11.757Z,1.63
2018-09-23T21:08:40.283Z,1.20
2018-09-23T21:11:08.877Z,1.30
2018-09-23T21:13:37.415Z,2.20
2018-09-23T21:16:05.978Z,1.60
2018-09-23T21:18:34.540Z,1.23
2018-09-23T21:21:03.076Z,1.70
2018-09-23T21:23:31.698Z,1.83
2018-09-23T21:26:00.222Z,1.90
2018-09-23T21:28:28.838Z,1.57
2018-09-23T21:30:57.441Z,1.53
2018-09-23T21:33:26.041Z,1.30
2018-09-23T21:35:54.602Z,1.60
2018-09-23T21:38:23.136Z,1.33
2018-09-23T21:40:51.674Z,1.80
2018-09-23T21:43:20.277Z,1.83
2018-09-23T21:45:48.816Z,2.13
2018-09-23T21:48:17.496Z,1.60
2018-09-23T21:50:46.085Z,1.00
2018-09-23T21:53:14.763Z,1.13
2018-09-23T21:55:43.369Z,0.97
2018-09-23T21:58:11.960Z,1.00
2018-09-23T22:00:43.616Z,0.60
2018-09-23T22:03:13.432Z,0.70
2018-09-23T22:05:42.116Z,0.60
2018-09-23T22:08:11.578Z,0.57
2018-09-23T22:10:40.409Z,0.60
2018-09-23T22:13:09.092Z,0.83
2018-09-23T22:15:37.867Z,0.70
2018-09-23T22:18:06.397Z,0.87
2018-09-23T22:20:35.058Z,0.60
2018-09-23T22:23:03.626Z,0.60
2018-09-23T22:25:32.192Z,0.67
2018-09-23T22:28:00.756Z,0.57
2018-09-23T22:30:29.558Z,0.57
2018-09-23T22:32:58.124Z,0.70
2018-09-23T22:35:26.709Z,0.40
2018-09-23T22:37:55.323Z,0.40
2018-09-23T22:40:23.985Z,0.40
2018-09-23T22:42:52.584Z,0.23
2018-09-23T22:45:21.126Z,0.20
2018-09-23T22:47:49.692Z,0.20
2018-09-23T22:50:18.385Z,0.20
2018-09-23T22:52:46.982Z,0.17
2018-09-23T22:55:15.734Z,0.27
2018-09-23T22:57:44.298Z,0.37
2018-09-23T23:00:12.857Z,0.30
2018-09-23T23:02:41.494Z,0.30
2018-09-23T23:05:10.054Z,0.30
2018-09-23T23:07:38.690Z,0.30
2018-09-23T23:10:07.297Z,0.20
2018-09-23T23:12:35.936Z,0.20
2018-09-23T23:15:04.610Z,0.30
2018-09-23T23:17:33.208Z,0.53
2018-09-23T23:20:01.817Z,0.30
2018-09-23T23:22:30.458Z,0.40
2018-09-23T23:24:59.052Z,0.30
2018-09-23T23:27:27.659Z,0.50
2018-09-23T23:29:56.368Z,0.20
2018-09-23T23:32:25.034Z,0.20
2018-09-23T23:34:53.638Z,0.37
2018-09-23T23:37:22.239Z,0.23
2018-09-23T23:39:50.868Z,0.20
2018-09-23T23:42:19.533Z,0.27
2018-09-23T23:44:48.174Z,0.50
2018-09-23T23:47:16.784Z,0.20
2018-09-23T23:49:45.364Z,0.27
2018-09-23T23:52:13.961Z,0.20
2018-09-23T23:54:42.576Z,0.30
2018-09-23T23:57:11.183Z,0.40
2018-09-23T23:59:39.806Z,0.20
